sensor_id;sensor_type;location;lat;lon;timestamp;P1;durP1;ratioP1;P2;durP2;ratioP2
30681;SDS011;17439;48.092;11.842;2023-05-10T00:00:25;1.10;;;0.30;;
30681;SDS011;17439;48.092;11.842;2023-05-10T00:02:52;0.52;;;0.40;;
30681;SDS011;17439;48.092;11.842;2023-05-10T00:05:19;0.47;;;0.28;;
30681;SDS011;17439;48.092;11.842;2023-05-10T00:07:45;0.30;;;0.30;;
30681;SDS011;17439;48.092;11.842;2023-05-10T00:10:12;0.70;;;0.32;;
30681;SDS011;17439;48.092;11.842;2023-05-10T00:12:39;1.60;;;0.45;;
30681;SDS011;17439;48.092;11.842;2023-05-10T00:15:06;0.38;;;0.38;;
30681;SDS011;17439;48.092;11.842;2023-05-10T00:17:33;0.77;;;0.32;;
30681;SDS011;17439;48.092;11.842;2023-05-10T00:20:00;0.50;;;0.40;;
30681;SDS011;17439;48.092;11.842;2023-05-10T00:22:27;0.52;;;0.40;;
30681;SDS011;17439;48.092;11.842;2023-05-10T00:24:53;1.27;;;0.52;;
30681;SDS011;17439;48.092;11.842;2023-05-10T00:27:20;0.52;;;0.50;;
30681;SDS011;17439;48.092;11.842;2023-05-10T00:29:47;0.77;;;0.40;;
30681;SDS011;17439;48.092;11.842;2023-05-10T00:32:13;0.68;;;0.63;;
30681;SDS011;17439;48.092;11.842;2023-05-10T00:34:40;1.00;;;0.50;;
30681;SDS011;17439;48.092;11.842;2023-05-10T00:37:07;0.32;;;0.30;;
30681;SDS011;17439;48.092;11.842;2023-05-10T00:39:34;0.93;;;0.52;;
30681;SDS011;17439;48.092;11.842;2023-05-10T00:42:01;2.90;;;1.27;;
30681;SDS011;17439;48.092;11.842;2023-05-10T00:44:27;0.85;;;0.30;;
30681;SDS011;17439;48.092;11.842;2023-05-10T00:46:54;0.50;;;0.47;;
30681;SDS011;17439;48.092;11.842;2023-05-10T00:49:21;0.77;;;0.43;;
30681;SDS011;17439;48.092;11.842;2023-05-10T00:51:48;0.40;;;0.40;;
30681;SDS011;17439;48.092;11.842;2023-05-10T00:54:15;0.40;;;0.40;;
30681;SDS011;17439;48.092;11.842;2023-05-10T00:56:42;0.60;;;0.40;;
30681;SDS011;17439;48.092;11.842;2023-05-10T00:59:09;0.38;;;0.38;;
30681;SDS011;17439;48.092;11.842;2023-05-10T01:01:35;0.52;;;0.52;;
30681;SDS011;17439;48.092;11.842;2023-05-10T01:04:02;0.85;;;0.50;;
30681;SDS011;17439;48.092;11.842;2023-05-10T01:06:30;0.60;;;0.30;;
30681;SDS011;17439;48.092;11.842;2023-05-10T01:08:56;0.45;;;0.30;;
30681;SDS011;17439;48.092;11.842;2023-05-10T01:11:23;0.82;;;0.50;;
30681;SDS011;17439;48.092;11.842;2023-05-10T01:13:52;1.48;;;0.60;;
30681;SDS011;17439;48.092;11.842;2023-05-10T01:16:22;0.63;;;0.40;;
30681;SDS011;17439;48.092;11.842;2023-05-10T01:18:51;0.55;;;0.50;;
30681;SDS011;17439;48.092;11.842;2023-05-10T01:21:31;2.95;;;0.60;;
30681;SDS011;17439;48.092;11.842;2023-05-10T01:24:12;2.17;;;0.50;;
30681;SDS011;17439;48.092;11.842;2023-05-10T01:26:58;0.47;;;0.35;;
30681;SDS011;17439;48.092;11.842;2023-05-10T01:35:37;0.93;;;0.40;;
30681;SDS011;17439;48.092;11.842;2023-05-10T01:38:16;1.48;;;0.50;;
30681;SDS011;17439;48.092;11.842;2023-05-10T01:40:48;3.20;;;0.30;;
30681;SDS011;17439;48.092;11.842;2023-05-10T01:43:28;2.47;;;0.38;;
30681;SDS011;17439;48.092;11.842;2023-05-10T01:46:03;0.75;;;0.60;;
30681;SDS011;17439;48.092;11.842;2023-05-10T01:48:34;0.88;;;0.45;;
30681;SDS011;17439;48.092;11.842;2023-05-10T01:51:01;0.50;;;0.40;;
30681;SDS011;17439;48.092;11.842;2023-05-10T01:53:28;0.25;;;0.25;;
30681;SDS011;17439;48.092;11.842;2023-05-10T01:55:56;1.65;;;0.30;;
30681;SDS011;17439;48.092;11.842;2023-05-10T01:58:30;0.30;;;0.30;;
30681;SDS011;17439;48.092;11.842;2023-05-10T02:00:59;0.45;;;0.30;;
30681;SDS011;17439;48.092;11.842;2023-05-10T02:03:29;1.23;;;0.65;;
30681;SDS011;17439;48.092;11.842;2023-05-10T02:05:58;0.75;;;0.38;;
30681;SDS011;17439;48.092;11.842;2023-05-10T02:08:25;1.58;;;0.40;;
30681;SDS011;17439;48.092;11.842;2023-05-10T02:10:53;1.00;;;0.30;;
30681;SDS011;17439;48.092;11.842;2023-05-10T02:13:22;0.60;;;0.50;;
30681;SDS011;17439;48.092;11.842;2023-05-10T02:15:50;0.55;;;0.30;;
30681;SDS011;17439;48.092;11.842;2023-05-10T02:18:17;0.35;;;0.30;;
30681;SDS011;17439;48.092;11.842;2023-05-10T02:20:45;1.20;;;0.30;;
30681;SDS011;17439;48.092;11.842;2023-05-10T02:23:14;4.00;;;0.45;;
30681;SDS011;17439;48.092;11.842;2023-05-10T02:25:43;0.55;;;0.30;;
30681;SDS011;17439;48.092;11.842;2023-05-10T02:28:12;0.30;;;0.30;;
30681;SDS011;17439;48.092;11.842;2023-05-10T02:33:07;0.10;;;0.10;;
30681;SDS011;17439;48.092;11.842;2023-05-10T02:35:34;0.52;;;0.30;;
30681;SDS011;17439;48.092;11.842;2023-05-10T02:38:02;0.55;;;0.50;;
30681;SDS011;17439;48.092;11.842;2023-05-10T02:40:31;0.25;;;0.25;;
30681;SDS011;17439;48.092;11.842;2023-05-10T02:42:59;0.30;;;0.30;;
30681;SDS011;17439;48.092;11.842;2023-05-10T02:45:30;0.82;;;0.40;;
30681;SDS011;17439;48.092;11.842;2023-05-10T02:47:58;1.05;;;0.30;;
30681;SDS011;17439;48.092;11.842;2023-05-10T02:50:26;0.32;;;0.25;;
30681;SDS011;17439;48.092;11.842;2023-05-10T02:52:56;0.43;;;0.20;;
30681;SDS011;17439;48.092;11.842;2023-05-10T02:55:27;1.65;;;0.55;;
30681;SDS011;17439;48.092;11.842;2023-05-10T02:58:00;0.32;;;0.20;;
30681;SDS011;17439;48.092;11.842;2023-05-10T03:00:28;0.30;;;0.30;;
30681;SDS011;17439;48.092;11.842;2023-05-10T03:02:55;0.47;;;0.30;;
30681;SDS011;17439;48.092;11.842;2023-05-10T03:05:22;0.20;;;0.20;;
30681;SDS011;17439;48.092;11.842;2023-05-10T03:07:49;0.35;;;0.28;;
30681;SDS011;17439;48.092;11.842;2023-05-10T03:10:16;1.00;;;0.20;;
30681;SDS011;17439;48.092;11.842;2023-05-10T03:16:12;0.43;;;0.20;;
30681;SDS011;17439;48.092;11.842;2023-05-10T03:21:12;0.22;;;0.15;;
30681;SDS011;17439;48.092;11.842;2023-05-10T03:23:43;1.38;;;0.30;;
30681;SDS011;17439;48.092;11.842;2023-05-10T03:26:17;0.82;;;0.47;;
30681;SDS011;17439;48.092;11.842;2023-05-10T03:28:49;0.20;;;0.20;;
30681;SDS011;17439;48.092;11.842;2023-05-10T03:31:19;2.40;;;0.40;;
30681;SDS011;17439;48.092;11.842;2023-05-10T03:33:46;0.13;;;0.13;;
30681;SDS011;17439;48.092;11.842;2023-05-10T03:36:16;0.10;;;0.10;;
30681;SDS011;17439;48.092;11.842;2023-05-10T03:38:42;0.50;;;0.20;;
30681;SDS011;17439;48.092;11.842;2023-05-10T03:41:10;0.85;;;0.20;;
30681;SDS011;17439;48.092;11.842;2023-05-10T03:43:36;1.05;;;0.30;;
30681;SDS011;17439;48.092;11.842;2023-05-10T03:46:03;4.30;;;0.30;;
30681;SDS011;17439;48.092;11.842;2023-05-10T03:48:32;0.55;;;0.30;;
30681;SDS011;17439;48.092;11.842;2023-05-10T03:50:59;0.25;;;0.22;;
30681;SDS011;17439;48.092;11.842;2023-05-10T03:53:25;0.30;;;0.30;;
30681;SDS011;17439;48.092;11.842;2023-05-10T03:55:52;0.75;;;0.10;;
30681;SDS011;17439;48.092;11.842;2023-05-10T03:58:19;1.48;;;0.20;;
30681;SDS011;17439;48.092;11.842;2023-05-10T04:00:46;0.73;;;0.30;;
30681;SDS011;17439;48.092;11.842;2023-05-10T04:03:13;2.00;;;0.57;;
30681;SDS011;17439;48.092;11.842;2023-05-10T04:05:41;0.20;;;0.10;;
30681;SDS011;17439;48.092;11.842;2023-05-10T04:08:07;0.20;;;0.20;;
30681;SDS011;17439;48.092;11.842;2023-05-10T04:10:34;0.30;;;0.10;;
30681;SDS011;17439;48.092;11.842;2023-05-10T04:13:00;0.52;;;0.20;;
30681;SDS011;17439;48.092;11.842;2023-05-10T04:15:27;0.30;;;0.30;;
30681;SDS011;17439;48.092;11.842;2023-05-10T04:17:54;0.20;;;0.20;;
30681;SDS011;17439;48.092;11.842;2023-05-10T04:20:21;3.95;;;0.68;;
30681;SDS011;17439;48.092;11.842;2023-05-10T04:22:47;1.55;;;0.50;;
30681;SDS011;17439;48.092;11.842;2023-05-10T04:25:14;0.30;;;0.20;;
30681;SDS011;17439;48.092;11.842;2023-05-10T04:27:40;0.40;;;0.25;;
30681;SDS011;17439;48.092;11.842;2023-05-10T04:30:07;0.32;;;0.30;;
30681;SDS011;17439;48.092;11.842;2023-05-10T04:32:34;0.80;;;0.32;;
30681;SDS011;17439;48.092;11.842;2023-05-10T04:35:01;4.78;;;0.38;;
30681;SDS011;17439;48.092;11.842;2023-05-10T04:37:27;2.78;;;0.32;;
30681;SDS011;17439;48.092;11.842;2023-05-10T04:39:54;0.80;;;0.28;;
30681;SDS011;17439;48.092;11.842;2023-05-10T04:42:21;0.10;;;0.10;;
30681;SDS011;17439;48.092;11.842;2023-05-10T04:44:48;3.20;;;0.30;;
30681;SDS011;17439;48.092;11.842;2023-05-10T04:47:14;0.08;;;0.08;;
30681;SDS011;17439;48.092;11.842;2023-05-10T04:49:41;0.65;;;0.20;;
30681;SDS011;17439;48.092;11.842;2023-05-10T04:52:08;0.60;;;0.30;;
30681;SDS011;17439;48.092;11.842;2023-05-10T04:54:34;0.20;;;0.20;;
30681;SDS011;17439;48.092;11.842;2023-05-10T04:57:01;2.38;;;0.20;;
30681;SDS011;17439;48.092;11.842;2023-05-10T04:59:28;0.28;;;0.20;;
30681;SDS011;17439;48.092;11.842;2023-05-10T05:01:54;0.17;;;0.17;;
30681;SDS011;17439;48.092;11.842;2023-05-10T05:04:21;0.57;;;0.10;;
30681;SDS011;17439;48.092;11.842;2023-05-10T05:06:48;0.22;;;0.10;;
30681;SDS011;17439;48.092;11.842;2023-05-10T05:09:17;0.45;;;0.45;;
30681;SDS011;17439;48.092;11.842;2023-05-10T05:11:44;1.10;;;0.10;;
30681;SDS011;17439;48.092;11.842;2023-05-10T05:14:10;0.00;;;0.00;;
30681;SDS011;17439;48.092;11.842;2023-05-10T05:16:37;0.38;;;0.10;;
30681;SDS011;17439;48.092;11.842;2023-05-10T05:19:04;0.20;;;0.10;;
30681;SDS011;17439;48.092;11.842;2023-05-10T05:21:30;0.30;;;0.20;;
30681;SDS011;17439;48.092;11.842;2023-05-10T05:23:57;0.90;;;0.20;;
30681;SDS011;17439;48.092;11.842;2023-05-10T05:26:24;0.30;;;0.15;;
30681;SDS011;17439;48.092;11.842;2023-05-10T05:28:50;0.55;;;0.10;;
30681;SDS011;17439;48.092;11.842;2023-05-10T05:31:17;0.45;;;0.17;;
30681;SDS011;17439;48.092;11.842;2023-05-10T05:33:44;0.43;;;0.20;;
30681;SDS011;17439;48.092;11.842;2023-05-10T05:36:11;0.40;;;0.38;;
30681;SDS011;17439;48.092;11.842;2023-05-10T05:38:37;0.43;;;0.20;;
30681;SDS011;17439;48.092;11.842;2023-05-10T05:41:04;0.20;;;0.10;;
30681;SDS011;17439;48.092;11.842;2023-05-10T05:43:31;0.68;;;0.30;;
30681;SDS011;17439;48.092;11.842;2023-05-10T05:45:57;0.30;;;0.10;;
30681;SDS011;17439;48.092;11.842;2023-05-10T05:48:24;0.10;;;0.10;;
30681;SDS011;17439;48.092;11.842;2023-05-10T05:50:54;1.05;;;0.30;;
30681;SDS011;17439;48.092;11.842;2023-05-10T05:53:20;0.03;;;0.00;;
30681;SDS011;17439;48.092;11.842;2023-05-10T05:55:51;0.30;;;0.15;;
30681;SDS011;17439;48.092;11.842;2023-05-10T05:58:21;0.20;;;0.10;;
30681;SDS011;17439;48.092;11.842;2023-05-10T06:00:49;0.32;;;0.20;;
30681;SDS011;17439;48.092;11.842;2023-05-10T06:03:16;0.13;;;0.10;;
30681;SDS011;17439;48.092;11.842;2023-05-10T06:05:44;0.43;;;0.10;;
30681;SDS011;17439;48.092;11.842;2023-05-10T06:08:10;0.32;;;0.20;;
30681;SDS011;17439;48.092;11.842;2023-05-10T06:10:37;0.30;;;0.20;;
30681;SDS011;17439;48.092;11.842;2023-05-10T06:13:04;0.90;;;0.20;;
30681;SDS011;17439;48.092;11.842;2023-05-10T06:15:30;0.32;;;0.20;;
30681;SDS011;17439;48.092;11.842;2023-05-10T06:17:57;1.02;;;0.40;;
30681;SDS011;17439;48.092;11.842;2023-05-10T06:20:24;2.00;;;0.38;;
30681;SDS011;17439;48.092;11.842;2023-05-10T06:22:51;1.13;;;0.52;;
30681;SDS011;17439;48.092;11.842;2023-05-10T06:25:18;2.92;;;0.60;;
30681;SDS011;17439;48.092;11.842;2023-05-10T06:27:45;0.60;;;0.30;;
30681;SDS011;17439;48.092;11.842;2023-05-10T06:30:18;1.42;;;0.50;;
30681;SDS011;17439;48.092;11.842;2023-05-10T06:32:44;0.88;;;0.30;;
30681;SDS011;17439;48.092;11.842;2023-05-10T06:35:11;0.95;;;0.50;;
30681;SDS011;17439;48.092;11.842;2023-05-10T06:37:38;0.70;;;0.47;;
30681;SDS011;17439;48.092;11.842;2023-05-10T06:40:05;0.65;;;0.38;;
30681;SDS011;17439;48.092;11.842;2023-05-10T06:44:59;0.40;;;0.40;;
30681;SDS011;17439;48.092;11.842;2023-05-10T06:47:26;0.73;;;0.50;;
30681;SDS011;17439;48.092;11.842;2023-05-10T06:49:52;2.65;;;0.63;;
30681;SDS011;17439;48.092;11.842;2023-05-10T06:52:19;1.10;;;0.60;;
30681;SDS011;17439;48.092;11.842;2023-05-10T06:54:46;1.33;;;0.70;;
30681;SDS011;17439;48.092;11.842;2023-05-10T06:57:13;2.08;;;1.23;;
30681;SDS011;17439;48.092;11.842;2023-05-10T06:59:55;1.67;;;0.95;;
30681;SDS011;17439;48.092;11.842;2023-05-10T07:02:22;2.03;;;0.93;;
30681;SDS011;17439;48.092;11.842;2023-05-10T07:04:49;0.88;;;0.73;;
30681;SDS011;17439;48.092;11.842;2023-05-10T07:07:16;1.53;;;1.00;;
30681;SDS011;17439;48.092;11.842;2023-05-10T07:09:43;2.72;;;0.95;;
30681;SDS011;17439;48.092;11.842;2023-05-10T07:12:09;2.15;;;0.80;;
30681;SDS011;17439;48.092;11.842;2023-05-10T07:14:40;3.10;;;0.93;;
30681;SDS011;17439;48.092;11.842;2023-05-10T07:17:07;0.60;;;0.60;;
30681;SDS011;17439;48.092;11.842;2023-05-10T07:19:33;1.00;;;0.90;;
30681;SDS011;17439;48.092;11.842;2023-05-10T07:22:00;1.85;;;0.80;;
30681;SDS011;17439;48.092;11.842;2023-05-10T07:24:26;1.33;;;0.70;;
30681;SDS011;17439;48.092;11.842;2023-05-10T07:26:53;1.05;;;0.60;;
30681;SDS011;17439;48.092;11.842;2023-05-10T07:29:20;3.30;;;0.60;;
30681;SDS011;17439;48.092;11.842;2023-05-10T07:31:46;0.95;;;0.63;;
30681;SDS011;17439;48.092;11.842;2023-05-10T07:34:13;1.58;;;0.90;;
30681;SDS011;17439;48.092;11.842;2023-05-10T07:36:40;2.90;;;0.90;;
30681;SDS011;17439;48.092;11.842;2023-05-10T07:39:06;0.80;;;0.80;;
30681;SDS011;17439;48.092;11.842;2023-05-10T07:41:33;0.52;;;0.50;;
30681;SDS011;17439;48.092;11.842;2023-05-10T07:44:01;0.60;;;0.50;;
30681;SDS011;17439;48.092;11.842;2023-05-10T07:46:28;0.77;;;0.60;;
30681;SDS011;17439;48.092;11.842;2023-05-10T07:48:55;0.85;;;0.60;;
30681;SDS011;17439;48.092;11.842;2023-05-10T07:51:21;2.95;;;0.57;;
30681;SDS011;17439;48.092;11.842;2023-05-10T07:53:48;0.75;;;0.60;;
30681;SDS011;17439;48.092;11.842;2023-05-10T07:56:25;0.90;;;0.60;;
30681;SDS011;17439;48.092;11.842;2023-05-10T07:58:54;2.03;;;0.77;;
30681;SDS011;17439;48.092;11.842;2023-05-10T08:01:21;3.07;;;0.60;;
30681;SDS011;17439;48.092;11.842;2023-05-10T08:03:48;1.50;;;0.67;;
30681;SDS011;17439;48.092;11.842;2023-05-10T08:06:16;1.13;;;0.52;;
30681;SDS011;17439;48.092;11.842;2023-05-10T08:08:43;3.67;;;0.50;;
30681;SDS011;17439;48.092;11.842;2023-05-10T08:13:38;0.43;;;0.40;;
30681;SDS011;17439;48.092;11.842;2023-05-10T08:16:05;4.90;;;0.60;;
30681;SDS011;17439;48.092;11.842;2023-05-10T08:18:31;1.02;;;0.77;;
30681;SDS011;17439;48.092;11.842;2023-05-10T08:20:58;2.42;;;0.45;;
30681;SDS011;17439;48.092;11.842;2023-05-10T08:23:25;0.52;;;0.47;;
30681;SDS011;17439;48.092;11.842;2023-05-10T08:25:51;1.05;;;0.65;;
30681;SDS011;17439;48.092;11.842;2023-05-10T08:28:18;0.63;;;0.52;;
30681;SDS011;17439;48.092;11.842;2023-05-10T08:30:45;1.27;;;1.15;;
30681;SDS011;17439;48.092;11.842;2023-05-10T08:33:11;1.42;;;0.70;;
30681;SDS011;17439;48.092;11.842;2023-05-10T08:35:38;1.77;;;0.93;;
30681;SDS011;17439;48.092;11.842;2023-05-10T08:38:05;0.47;;;0.47;;
30681;SDS011;17439;48.092;11.842;2023-05-10T08:40:31;1.25;;;0.80;;
30681;SDS011;17439;48.092;11.842;2023-05-10T08:42:59;0.73;;;0.60;;
30681;SDS011;17439;48.092;11.842;2023-05-10T08:45:42;1.88;;;0.80;;
30681;SDS011;17439;48.092;11.842;2023-05-10T08:48:10;1.05;;;0.52;;
30681;SDS011;17439;48.092;11.842;2023-05-10T08:50:38;1.13;;;0.60;;
30681;SDS011;17439;48.092;11.842;2023-05-10T08:53:09;1.23;;;0.60;;
30681;SDS011;17439;48.092;11.842;2023-05-10T08:55:37;0.43;;;0.43;;
30681;SDS011;17439;48.092;11.842;2023-05-10T08:58:04;1.17;;;0.50;;
30681;SDS011;17439;48.092;11.842;2023-05-10T09:00:32;0.70;;;0.70;;
30681;SDS011;17439;48.092;11.842;2023-05-10T09:02:59;1.05;;;0.60;;
30681;SDS011;17439;48.092;11.842;2023-05-10T09:05:26;0.47;;;0.40;;
30681;SDS011;17439;48.092;11.842;2023-05-10T09:07:53;0.50;;;0.30;;
30681;SDS011;17439;48.092;11.842;2023-05-10T09:10:20;0.50;;;0.40;;
30681;SDS011;17439;48.092;11.842;2023-05-10T09:12:48;0.60;;;0.45;;
30681;SDS011;17439;48.092;11.842;2023-05-10T09:15:15;0.28;;;0.28;;
30681;SDS011;17439;48.092;11.842;2023-05-10T09:17:43;1.10;;;0.40;;
30681;SDS011;17439;48.092;11.842;2023-05-10T09:20:10;2.92;;;0.65;;
30681;SDS011;17439;48.092;11.842;2023-05-10T09:22:37;0.90;;;0.82;;
30681;SDS011;17439;48.092;11.842;2023-05-10T09:25:08;2.33;;;0.73;;
30681;SDS011;17439;48.092;11.842;2023-05-10T09:27:40;2.38;;;1.35;;
30681;SDS011;17439;48.092;11.842;2023-05-10T09:30:08;1.25;;;0.70;;
30681;SDS011;17439;48.092;11.842;2023-05-10T09:35:16;1.80;;;0.98;;
30681;SDS011;17439;48.092;11.842;2023-05-10T09:37:45;4.57;;;0.95;;
30681;SDS011;17439;48.092;11.842;2023-05-10T09:40:14;0.95;;;0.60;;
30681;SDS011;17439;48.092;11.842;2023-05-10T09:42:55;2.25;;;0.40;;
30681;SDS011;17439;48.092;11.842;2023-05-10T09:45:29;0.40;;;0.30;;
30681;SDS011;17439;48.092;11.842;2023-05-10T09:48:03;0.28;;;0.20;;
30681;SDS011;17439;48.092;11.842;2023-05-10T09:50:30;0.35;;;0.35;;
30681;SDS011;17439;48.092;11.842;2023-05-10T09:52:58;0.65;;;0.40;;
30681;SDS011;17439;48.092;11.842;2023-05-10T09:55:37;0.50;;;0.32;;
30681;SDS011;17439;48.092;11.842;2023-05-10T09:58:04;0.30;;;0.20;;
30681;SDS011;17439;48.092;11.842;2023-05-10T10:00:35;2.00;;;0.83;;
30681;SDS011;17439;48.092;11.842;2023-05-10T10:03:03;1.35;;;0.60;;
30681;SDS011;17439;48.092;11.842;2023-05-10T10:05:31;0.47;;;0.40;;
30681;SDS011;17439;48.092;11.842;2023-05-10T10:08:00;2.10;;;0.60;;
30681;SDS011;17439;48.092;11.842;2023-05-10T10:10:28;0.95;;;0.52;;
30681;SDS011;17439;48.092;11.842;2023-05-10T10:12:57;0.70;;;0.60;;
30681;SDS011;17439;48.092;11.842;2023-05-10T10:15:23;0.90;;;0.45;;
30681;SDS011;17439;48.092;11.842;2023-05-10T10:17:51;2.60;;;1.40;;
30681;SDS011;17439;48.092;11.842;2023-05-10T10:20:19;1.40;;;0.68;;
30681;SDS011;17439;48.092;11.842;2023-05-10T10:25:15;1.90;;;0.35;;
30681;SDS011;17439;48.092;11.842;2023-05-10T10:33:29;0.63;;;0.60;;
30681;SDS011;17439;48.092;11.842;2023-05-10T10:36:14;0.40;;;0.40;;
30681;SDS011;17439;48.092;11.842;2023-05-10T10:41:27;0.55;;;0.32;;
30681;SDS011;17439;48.092;11.842;2023-05-10T10:44:22;1.92;;;0.50;;
30681;SDS011;17439;48.092;11.842;2023-05-10T10:57:33;1.02;;;0.77;;
30681;SDS011;17439;48.092;11.842;2023-05-10T11:00:17;0.60;;;0.40;;
30681;SDS011;17439;48.092;11.842;2023-05-10T11:02:56;1.23;;;0.65;;
30681;SDS011;17439;48.092;11.842;2023-05-10T11:07:55;1.50;;;0.63;;
30681;SDS011;17439;48.092;11.842;2023-05-10T11:12:51;3.25;;;1.17;;
30681;SDS011;17439;48.092;11.842;2023-05-10T11:15:19;4.65;;;1.10;;
30681;SDS011;17439;48.092;11.842;2023-05-10T11:17:47;1.30;;;0.90;;
30681;SDS011;17439;48.092;11.842;2023-05-10T11:20:15;1.20;;;0.77;;
30681;SDS011;17439;48.092;11.842;2023-05-10T11:22:52;0.70;;;0.70;;
30681;SDS011;17439;48.092;11.842;2023-05-10T11:25:20;1.17;;;0.68;;
30681;SDS011;17439;48.092;11.842;2023-05-10T11:27:52;2.47;;;0.77;;
30681;SDS011;17439;48.092;11.842;2023-05-10T11:30:19;1.70;;;0.68;;
30681;SDS011;17439;48.092;11.842;2023-05-10T11:32:46;0.65;;;0.52;;
30681;SDS011;17439;48.092;11.842;2023-05-10T11:35:13;1.35;;;0.93;;
30681;SDS011;17439;48.092;11.842;2023-05-10T11:37:40;0.50;;;0.50;;
30681;SDS011;17439;48.092;11.842;2023-05-10T11:40:07;2.95;;;1.10;;
30681;SDS011;17439;48.092;11.842;2023-05-10T11:42:38;2.40;;;0.80;;
30681;SDS011;17439;48.092;11.842;2023-05-10T11:45:05;1.00;;;0.80;;
30681;SDS011;17439;48.092;11.842;2023-05-10T11:47:32;6.22;;;0.98;;
30681;SDS011;17439;48.092;11.842;2023-05-10T11:49:59;2.65;;;0.77;;
30681;SDS011;17439;48.092;11.842;2023-05-10T11:52:26;0.40;;;0.40;;
30681;SDS011;17439;48.092;11.842;2023-05-10T11:54:53;0.85;;;0.50;;
30681;SDS011;17439;48.092;11.842;2023-05-10T11:57:20;1.25;;;0.68;;
30681;SDS011;17439;48.092;11.842;2023-05-10T11:59:56;0.77;;;0.68;;
30681;SDS011;17439;48.092;11.842;2023-05-10T12:02:23;1.45;;;0.88;;
30681;SDS011;17439;48.092;11.842;2023-05-10T12:04:50;1.77;;;1.08;;
30681;SDS011;17439;48.092;11.842;2023-05-10T12:07:17;2.23;;;1.07;;
30681;SDS011;17439;48.092;11.842;2023-05-10T12:10:01;1.25;;;0.90;;
30681;SDS011;17439;48.092;11.842;2023-05-10T12:12:36;4.60;;;0.90;;
30681;SDS011;17439;48.092;11.842;2023-05-10T12:15:11;3.63;;;0.80;;
30681;SDS011;17439;48.092;11.842;2023-05-10T12:17:39;1.83;;;0.85;;
30681;SDS011;17439;48.092;11.842;2023-05-10T12:20:15;2.13;;;0.40;;
30681;SDS011;17439;48.092;11.842;2023-05-10T12:23:00;0.90;;;0.50;;
30681;SDS011;17439;48.092;11.842;2023-05-10T12:25:29;2.72;;;0.55;;
30681;SDS011;17439;48.092;11.842;2023-05-10T12:27:58;0.95;;;0.30;;
30681;SDS011;17439;48.092;11.842;2023-05-10T12:30:26;4.90;;;0.50;;
30681;SDS011;17439;48.092;11.842;2023-05-10T12:32:54;4.50;;;0.68;;
30681;SDS011;17439;48.092;11.842;2023-05-10T12:35:29;1.00;;;0.47;;
30681;SDS011;17439;48.092;11.842;2023-05-10T12:37:57;4.43;;;0.68;;
30681;SDS011;17439;48.092;11.842;2023-05-10T12:40:23;2.42;;;0.40;;
30681;SDS011;17439;48.092;11.842;2023-05-10T12:42:50;2.83;;;0.63;;
30681;SDS011;17439;48.092;11.842;2023-05-10T12:45:17;0.73;;;0.20;;
30681;SDS011;17439;48.092;11.842;2023-05-10T12:47:44;1.40;;;0.40;;
30681;SDS011;17439;48.092;11.842;2023-05-10T12:50:11;0.95;;;0.60;;
30681;SDS011;17439;48.092;11.842;2023-05-10T12:52:38;4.85;;;0.63;;
30681;SDS011;17439;48.092;11.842;2023-05-10T12:55:04;2.47;;;0.65;;
30681;SDS011;17439;48.092;11.842;2023-05-10T12:57:31;2.90;;;1.00;;
30681;SDS011;17439;48.092;11.842;2023-05-10T12:59:58;1.50;;;0.47;;
30681;SDS011;17439;48.092;11.842;2023-05-10T13:02:24;1.75;;;0.70;;
30681;SDS011;17439;48.092;11.842;2023-05-10T13:04:51;1.35;;;1.20;;
30681;SDS011;17439;48.092;11.842;2023-05-10T13:07:18;1.40;;;0.70;;
30681;SDS011;17439;48.092;11.842;2023-05-10T13:09:44;2.22;;;0.73;;
30681;SDS011;17439;48.092;11.842;2023-05-10T13:12:11;1.10;;;0.75;;
30681;SDS011;17439;48.092;11.842;2023-05-10T13:14:38;0.82;;;0.60;;
30681;SDS011;17439;48.092;11.842;2023-05-10T13:17:04;2.15;;;0.80;;
30681;SDS011;17439;48.092;11.842;2023-05-10T13:19:31;1.88;;;0.65;;
30681;SDS011;17439;48.092;11.842;2023-05-10T13:21:58;1.83;;;0.68;;
30681;SDS011;17439;48.092;11.842;2023-05-10T13:24:25;1.20;;;1.00;;
30681;SDS011;17439;48.092;11.842;2023-05-10T13:26:51;1.70;;;1.10;;
30681;SDS011;17439;48.092;11.842;2023-05-10T13:29:18;1.10;;;1.00;;
30681;SDS011;17439;48.092;11.842;2023-05-10T13:31:45;1.45;;;0.85;;
30681;SDS011;17439;48.092;11.842;2023-05-10T13:34:12;2.35;;;1.35;;
30681;SDS011;17439;48.092;11.842;2023-05-10T13:36:38;1.90;;;0.88;;
30681;SDS011;17439;48.092;11.842;2023-05-10T13:39:05;0.90;;;0.70;;
30681;SDS011;17439;48.092;11.842;2023-05-10T13:41:32;6.10;;;1.55;;
30681;SDS011;17439;48.092;11.842;2023-05-10T13:43:59;2.40;;;1.15;;
30681;SDS011;17439;48.092;11.842;2023-05-10T13:46:25;3.05;;;1.02;;
30681;SDS011;17439;48.092;11.842;2023-05-10T13:48:55;2.42;;;1.25;;
30681;SDS011;17439;48.092;11.842;2023-05-10T13:51:22;2.75;;;1.35;;
30681;SDS011;17439;48.092;11.842;2023-05-10T13:53:49;1.27;;;0.85;;
30681;SDS011;17439;48.092;11.842;2023-05-10T13:56:15;1.67;;;1.05;;
30681;SDS011;17439;48.092;11.842;2023-05-10T13:58:42;2.22;;;1.17;;
30681;SDS011;17439;48.092;11.842;2023-05-10T14:01:09;6.75;;;0.93;;
30681;SDS011;17439;48.092;11.842;2023-05-10T14:03:35;1.67;;;0.70;;
30681;SDS011;17439;48.092;11.842;2023-05-10T14:06:02;3.10;;;1.40;;
30681;SDS011;17439;48.092;11.842;2023-05-10T14:08:29;1.42;;;1.00;;
30681;SDS011;17439;48.092;11.842;2023-05-10T14:10:56;2.05;;;0.95;;
30681;SDS011;17439;48.092;11.842;2023-05-10T14:13:22;2.30;;;0.60;;
30681;SDS011;17439;48.092;11.842;2023-05-10T14:15:49;1.33;;;0.73;;
30681;SDS011;17439;48.092;11.842;2023-05-10T14:18:16;1.70;;;0.90;;
30681;SDS011;17439;48.092;11.842;2023-05-10T14:20:42;1.50;;;0.60;;
30681;SDS011;17439;48.092;11.842;2023-05-10T14:23:09;0.63;;;0.60;;
30681;SDS011;17439;48.092;11.842;2023-05-10T14:25:37;0.43;;;0.40;;
30681;SDS011;17439;48.092;11.842;2023-05-10T14:28:05;0.82;;;0.63;;
30681;SDS011;17439;48.092;11.842;2023-05-10T14:30:32;2.65;;;0.80;;
30681;SDS011;17439;48.092;11.842;2023-05-10T14:32:59;1.27;;;0.60;;
30681;SDS011;17439;48.092;11.842;2023-05-10T14:35:27;0.95;;;0.65;;
30681;SDS011;17439;48.092;11.842;2023-05-10T14:37:54;0.75;;;0.60;;
30681;SDS011;17439;48.092;11.842;2023-05-10T14:40:20;1.13;;;0.63;;
30681;SDS011;17439;48.092;11.842;2023-05-10T14:42:47;1.17;;;0.75;;
30681;SDS011;17439;48.092;11.842;2023-05-10T14:45:13;3.83;;;1.00;;
30681;SDS011;17439;48.092;11.842;2023-05-10T14:47:40;1.30;;;0.60;;
30681;SDS011;17439;48.092;11.842;2023-05-10T14:50:07;0.77;;;0.70;;
30681;SDS011;17439;48.092;11.842;2023-05-10T14:52:34;2.67;;;1.25;;
30681;SDS011;17439;48.092;11.842;2023-05-10T14:55:01;0.80;;;0.73;;
30681;SDS011;17439;48.092;11.842;2023-05-10T14:57:27;0.55;;;0.50;;
30681;SDS011;17439;48.092;11.842;2023-05-10T14:59:54;0.82;;;0.40;;
30681;SDS011;17439;48.092;11.842;2023-05-10T15:02:22;1.02;;;0.55;;
30681;SDS011;17439;48.092;11.842;2023-05-10T15:04:49;0.68;;;0.40;;
30681;SDS011;17439;48.092;11.842;2023-05-10T15:07:16;0.82;;;0.77;;
30681;SDS011;17439;48.092;11.842;2023-05-10T15:09:46;0.63;;;0.50;;
30681;SDS011;17439;48.092;11.842;2023-05-10T15:12:13;0.52;;;0.52;;
30681;SDS011;17439;48.092;11.842;2023-05-10T15:14:40;1.17;;;0.70;;
30681;SDS011;17439;48.092;11.842;2023-05-10T15:17:06;2.28;;;0.90;;
30681;SDS011;17439;48.092;11.842;2023-05-10T15:19:33;2.45;;;0.90;;
30681;SDS011;17439;48.092;11.842;2023-05-10T15:22:01;1.85;;;1.08;;
30681;SDS011;17439;48.092;11.842;2023-05-10T15:24:28;1.43;;;0.80;;
30681;SDS011;17439;48.092;11.842;2023-05-10T15:26:55;0.98;;;0.55;;